createdAt,value
2017-09-04T00:01:11.792Z,98.30
2017-09-04T00:03:39.292Z,98.50
2017-09-04T00:06:06.825Z,98.60
2017-09-04T00:08:38.807Z,98.60
2017-09-04T00:11:06.307Z,98.60
2017-09-04T00:13:33.836Z,98.60
2017-09-04T00:16:01.348Z,98.60
2017-09-04T00:18:28.890Z,98.80
2017-09-04T00:20:56.402Z,98.90
2017-09-04T00:23:23.965Z,98.80
2017-09-04T00:25:51.483Z,99.20
2017-09-04T00:28:19.799Z,98.90
2017-09-04T00:30:47.327Z,98.90
2017-09-04T00:33:14.837Z,98.90
2017-09-04T00:35:42.372Z,98.90
2017-09-04T00:38:09.879Z,99.00
2017-09-04T00:40:41.292Z,99.00
2017-09-04T00:43:10.888Z,98.50
2017-09-04T00:45:39.355Z,98.50
2017-09-04T00:48:06.863Z,98.60
2017-09-04T00:50:34.360Z,98.70
2017-09-04T00:53:01.866Z,98.90
2017-09-04T00:55:31.968Z,98.90
2017-09-04T00:58:03.522Z,99.00
2017-09-04T01:00:31.047Z,99.00
2017-09-04T01:02:58.648Z,98.90
2017-09-04T01:05:26.179Z,98.60
2017-09-04T01:07:53.723Z,98.80
2017-09-04T01:10:21.247Z,98.60
2017-09-04T01:12:48.753Z,98.60
2017-09-04T01:15:17.938Z,98.20
2017-09-04T01:17:45.451Z,98.20
2017-09-04T01:20:13.058Z,98.40
2017-09-04T01:22:40.586Z,98.80
2017-09-04T01:25:08.099Z,99.00
2017-09-04T01:27:39.244Z,99.20
2017-09-04T01:30:07.555Z,99.40
2017-09-04T01:32:35.087Z,99.40
2017-09-04T01:35:02.592Z,99.50
2017-09-04T01:37:30.121Z,99.40
2017-09-04T01:39:57.655Z,99.20
2017-09-04T01:42:25.184Z,99.30
2017-09-04T01:44:52.707Z,99.30
2017-09-04T01:47:21.044Z,99.20
2017-09-04T01:49:48.616Z,99.30
2017-09-04T01:52:16.919Z,99.50
2017-09-04T01:54:44.426Z,99.50
2017-09-04T01:57:17.056Z,99.50
2017-09-04T01:59:44.556Z,99.50
2017-09-04T02:02:12.063Z,99.40
2017-09-04T02:04:40.527Z,99.30
2017-09-04T02:07:09.847Z,99.00
2017-09-04T02:09:37.338Z,99.00
2017-09-04T02:12:08.564Z,98.90
2017-09-04T02:14:36.095Z,98.80
2017-09-04T02:17:03.631Z,98.90
2017-09-04T02:19:31.160Z,98.80
2017-09-04T02:21:58.699Z,99.00
2017-09-04T02:24:26.212Z,99.10
2017-09-04T02:26:58.223Z,99.50
2017-09-04T02:29:25.739Z,99.30
2017-09-04T02:31:53.276Z,99.30
2017-09-04T02:34:20.836Z,99.30
2017-09-04T02:36:48.387Z,99.20
2017-09-04T02:39:16.837Z,99.30
2017-09-04T02:41:44.352Z,99.40
2017-09-04T02:44:11.886Z,99.40
2017-09-04T02:46:39.378Z,99.50
2017-09-04T02:49:06.908Z,99.50
2017-09-04T02:51:34.423Z,99.70
2017-09-04T02:54:02.081Z,99.70
2017-09-04T02:56:29.578Z,99.60
2017-09-04T02:58:57.711Z,99.70
2017-09-04T03:01:26.889Z,99.70
2017-09-04T03:03:54.401Z,99.60
2017-09-04T03:06:22.176Z,99.60
2017-09-04T03:08:49.703Z,99.60
2017-09-04T03:11:17.492Z,99.50
2017-09-04T03:13:45.046Z,99.40
2017-09-04T03:16:13.496Z,99.40
2017-09-04T03:18:41.639Z,99.30
2017-09-04T03:21:09.624Z,99.20
2017-09-04T03:23:37.196Z,99.30
2017-09-04T03:26:04.747Z,99.30
2017-09-04T03:28:32.260Z,99.70
2017-09-04T03:31:00.521Z,99.40
2017-09-04T03:33:28.028Z,99.40
2017-09-04T03:35:55.571Z,99.30
2017-09-04T03:38:23.094Z,99.50
2017-09-04T03:40:50.643Z,99.10
2017-09-04T03:43:22.355Z,99.20
2017-09-04T03:45:49.923Z,99.40
2017-09-04T03:48:17.439Z,99.40
2017-09-04T03:50:44.988Z,99.40
2017-09-04T03:53:13.207Z,99.40
2017-09-04T03:55:40.760Z,99.40
2017-09-04T03:58:12.129Z,99.50
2017-09-04T04:00:39.691Z,99.50
2017-09-04T04:03:07.200Z,99.70
2017-09-04T04:05:34.746Z,99.70
2017-09-04T04:08:02.243Z,99.70
2017-09-04T04:10:29.779Z,99.70
2017-09-04T04:13:01.945Z,99.70
2017-09-04T04:15:29.522Z,99.80
2017-09-04T04:17:57.037Z,99.80
2017-09-04T04:20:24.610Z,99.70
2017-09-04T04:22:52.116Z,99.80
2017-09-04T04:25:19.621Z,99.80
2017-09-04T04:27:48.558Z,99.70
2017-09-04T04:30:16.059Z,99.70
2017-09-04T04:32:43.635Z,99.50
2017-09-04T04:35:11.194Z,99.30
2017-09-04T04:37:38.718Z,99.20
2017-09-04T04:40:07.923Z,99.20
2017-09-04T04:42:36.344Z,99.20
2017-09-04T04:45:03.859Z,99.00
2017-09-04T04:47:31.505Z,98.40
2017-09-04T04:49:59.014Z,98.40
2017-09-04T04:52:26.537Z,98.70
2017-09-04T04:54:54.040Z,99.00
2017-09-04T04:57:23.610Z,98.80
2017-09-04T04:59:51.155Z,98.70
2017-09-04T05:02:18.658Z,99.00
2017-09-04T05:04:46.207Z,99.20
2017-09-04T05:07:13.729Z,99.40
2017-09-04T05:09:41.295Z,99.30
2017-09-04T05:12:09.717Z,99.20
2017-09-04T05:14:37.264Z,99.10
2017-09-04T05:17:04.794Z,98.90
2017-09-04T05:19:32.360Z,99.90
2017-09-04T05:21:59.872Z,99.90
2017-09-04T05:24:28.182Z,98.00
2017-09-04T05:26:55.759Z,97.80
2017-09-04T05:29:31.942Z,98.60
2017-09-04T05:32:03.307Z,98.00
2017-09-04T05:34:30.818Z,97.20
2017-09-04T05:36:59.039Z,95.70
2017-09-04T05:39:26.768Z,95.10
2017-09-04T05:41:54.841Z,95.50
2017-09-04T05:44:22.400Z,95.70
2017-09-04T05:46:51.178Z,96.40
2017-09-04T05:49:20.432Z,95.10
2017-09-04T05:51:47.991Z,94.70
2017-09-04T05:54:15.497Z,94.90
2017-09-04T05:56:43.955Z,94.20
2017-09-04T05:59:11.463Z,95.20
2017-09-04T06:01:40.702Z,95.90
2017-09-04T06:04:08.958Z,96.30
2017-09-04T06:06:36.503Z,94.90
2017-09-04T06:09:04.056Z,94.90
2017-09-04T06:11:31.572Z,95.30
2017-09-04T06:14:00.045Z,95.30
2017-09-04T06:16:27.940Z,94.20
2017-09-04T06:18:55.513Z,93.20
2017-09-04T06:21:23.841Z,93.60
2017-09-04T06:23:51.766Z,93.50
2017-09-04T06:26:19.288Z,92.80
2017-09-04T06:28:47.308Z,92.10
2017-09-04T06:31:16.281Z,92.40
2017-09-04T06:33:45.852Z,92.20
2017-09-04T06:36:14.136Z,91.40
2017-09-04T06:38:42.259Z,91.30
2017-09-04T06:41:09.771Z,91.60
2017-09-04T06:43:38.464Z,92.90
2017-09-04T06:46:06.713Z,93.00
2017-09-04T06:48:34.281Z,91.20
2017-09-04T06:51:01.851Z,89.80
2017-09-04T06:53:29.363Z,89.80
2017-09-04T06:55:56.876Z,87.80
2017-09-04T06:58:24.396Z,87.30
2017-09-04T07:00:53.970Z,87.40
2017-09-04T07:03:21.535Z,86.30
2017-09-04T07:05:49.141Z,88.20
2017-09-04T07:08:16.656Z,89.90
2017-09-04T07:10:45.100Z,88.40
2017-09-04T07:13:12.645Z,84.40
2017-09-04T07:15:40.154Z,79.80
2017-09-04T07:18:10.639Z,77.20
2017-09-04T07:20:38.223Z,71.70
2017-09-04T07:23:05.784Z,65.70
2017-09-04T07:25:33.307Z,59.50
2017-09-04T07:28:00.860Z,53.80
2017-09-04T07:30:29.147Z,50.10
2017-09-04T07:34:54.137Z,49.10
2017-09-04T07:37:22.647Z,46.10
2017-09-04T07:39:50.169Z,43.30
2017-09-04T07:42:18.209Z,42.50
2017-09-04T07:44:45.796Z,40.20
2017-09-04T07:47:14.161Z,40.20
2017-09-04T07:49:41.775Z,39.30
2017-09-04T07:52:09.336Z,37.10
2017-09-04T07:54:37.448Z,36.30
2017-09-04T07:57:04.967Z,35.70
2017-09-04T07:59:34.172Z,35.10
2017-09-04T08:02:02.001Z,35.00
2017-09-04T08:04:29.561Z,34.70
2017-09-04T08:06:57.893Z,33.70
2017-09-04T08:09:25.451Z,32.50
2017-09-04T08:11:52.954Z,32.20
2017-09-04T08:14:21.422Z,32.60
2017-09-04T08:16:56.344Z,32.70
2017-09-04T08:19:23.900Z,36.50
2017-09-04T08:21:52.577Z,37.30
2017-09-04T08:24:20.084Z,37.30
2017-09-04T08:26:47.629Z,34.70
2017-09-04T08:29:15.185Z,34.30
2017-09-04T08:31:42.697Z,33.20
2017-09-04T08:34:11.178Z,31.10
2017-09-04T08:36:38.716Z,31.10
2017-09-04T08:39:06.233Z,30.30
2017-09-04T08:41:34.130Z,31.60
2017-09-04T08:44:01.680Z,30.90
2017-09-04T08:46:29.220Z,31.90
2017-09-04T08:48:56.735Z,29.00
2017-09-04T08:51:25.636Z,27.70
2017-09-04T08:53:53.175Z,27.50
2017-09-04T08:56:20.763Z,27.60
2017-09-04T08:58:49.959Z,31.90
2017-09-04T09:01:17.569Z,31.80
2017-09-04T09:03:45.086Z,31.00
2017-09-04T09:06:12.592Z,28.30
2017-09-04T09:08:40.128Z,27.60
2017-09-04T09:11:09.347Z,28.50
2017-09-04T09:13:37.338Z,28.50
2017-09-04T09:16:04.848Z,29.60
2017-09-04T09:18:33.104Z,31.10
2017-09-04T09:21:00.644Z,34.20
2017-09-04T09:23:28.199Z,31.10
2017-09-04T09:25:55.704Z,29.40
2017-09-04T09:28:23.268Z,27.30
2017-09-04T09:30:50.870Z,32.00
2017-09-04T09:33:18.385Z,30.60
2017-09-04T09:35:45.887Z,27.40
2017-09-04T09:38:14.197Z,26.10
2017-09-04T09:40:41.747Z,26.10
2017-09-04T09:43:09.259Z,25.50
2017-09-04T09:45:36.793Z,25.50
2017-09-04T09:48:04.330Z,24.20
2017-09-04T09:50:31.888Z,23.40
2017-09-04T09:53:00.478Z,23.30
2017-09-04T09:55:28.059Z,22.30
2017-09-04T09:57:55.569Z,23.40
2017-09-04T10:00:23.076Z,25.40
2017-09-04T10:02:50.588Z,26.10
2017-09-04T10:05:19.045Z,27.20
2017-09-04T10:07:46.603Z,25.90
2017-09-04T10:10:14.354Z,25.50
2017-09-04T10:12:41.875Z,25.00
2017-09-04T10:15:09.560Z,24.40
2017-09-04T10:17:37.212Z,23.20
2017-09-04T10:20:04.771Z,21.90
2017-09-04T10:22:33.055Z,21.70
2017-09-04T10:25:00.579Z,22.40
2017-09-04T10:27:28.163Z,22.10
2017-09-04T10:29:55.686Z,20.90
2017-09-04T10:32:23.192Z,21.80
2017-09-04T10:34:50.927Z,21.50
2017-09-04T10:37:18.442Z,21.90
2017-09-04T10:39:47.659Z,20.40
2017-09-04T10:42:15.307Z,20.40
2017-09-04T10:44:42.816Z,22.20
2017-09-04T10:47:10.340Z,21.40
2017-09-04T10:49:41.937Z,20.70
2017-09-04T10:52:09.520Z,21.90
2017-09-04T10:54:37.058Z,22.60
2017-09-04T10:57:04.562Z,22.70
2017-09-04T10:59:32.149Z,22.00
2017-09-04T11:01:59.704Z,21.20
2017-09-04T11:04:27.366Z,20.40
2017-09-04T11:06:55.873Z,20.60
2017-09-04T11:09:23.775Z,20.20
2017-09-04T11:11:51.293Z,19.90
2017-09-04T11:14:18.836Z,20.20
2017-09-04T11:16:46.338Z,21.20
2017-09-04T11:19:14.767Z,20.30
2017-09-04T11:21:42.303Z,21.80
2017-09-04T11:24:09.813Z,23.60
2017-09-04T11:26:37.337Z,25.70
2017-09-04T11:29:05.683Z,25.00
2017-09-04T11:31:33.837Z,24.90
2017-09-04T11:34:01.341Z,23.40
2017-09-04T11:36:28.843Z,23.10
2017-09-04T11:38:56.359Z,23.00
2017-09-04T11:41:24.685Z,25.80
2017-09-04T11:43:52.811Z,25.70
2017-09-04T11:46:20.311Z,27.30
2017-09-04T11:48:47.866Z,27.30
2017-09-04T11:51:19.843Z,25.40
2017-09-04T11:53:47.817Z,23.20
2017-09-04T11:56:15.353Z,24.30
2017-09-04T11:58:42.888Z,25.80
2017-09-04T12:01:10.433Z,26.60
2017-09-04T12:03:38.027Z,27.80
2017-09-04T12:06:05.587Z,30.10
2017-09-04T12:08:33.117Z,30.90
2017-09-04T12:11:02.320Z,35.80
2017-09-04T12:13:32.283Z,34.80
2017-09-04T12:15:59.803Z,34.80
2017-09-04T12:18:27.369Z,35.80
2017-09-04T12:20:57.791Z,36.80
2017-09-04T12:23:30.904Z,36.80
2017-09-04T12:25:58.417Z,38.70
2017-09-04T12:28:25.989Z,39.30
2017-09-04T12:30:53.584Z,40.10
2017-09-04T12:33:21.476Z,40.60
2017-09-04T12:35:49.174Z,38.20
2017-09-04T12:38:16.698Z,43.20
2017-09-04T12:40:44.221Z,42.30
2017-09-04T12:43:12.496Z,43.10
2017-09-04T12:45:41.691Z,43.10
2017-09-04T12:48:09.228Z,42.90
2017-09-04T12:50:36.771Z,41.10
2017-09-04T12:53:05.244Z,43.80
2017-09-04T12:55:32.784Z,44.90
2017-09-04T12:58:01.215Z,45.80
2017-09-04T13:00:28.875Z,45.60
2017-09-04T13:02:56.386Z,47.70
2017-09-04T13:05:24.811Z,47.20
2017-09-04T13:07:52.366Z,45.70
2017-09-04T13:13:29.177Z,47.80
2017-09-04T13:16:02.216Z,47.80
2017-09-04T13:18:35.532Z,48.60
2017-09-04T13:21:08.620Z,49.40
2017-09-04T13:26:49.679Z,47.90
2017-09-04T13:29:22.908Z,49.40
2017-09-04T13:35:02.382Z,51.70
2017-09-04T13:37:30.811Z,54.20
2017-09-04T13:40:04.211Z,54.40
2017-09-04T13:42:37.396Z,53.80
2017-09-04T13:48:17.851Z,52.00
2017-09-04T13:53:56.456Z,47.20
2017-09-04T13:56:43.555Z,48.30
2017-09-04T14:02:21.612Z,45.40
2017-09-04T14:04:55.271Z,47.80
2017-09-04T14:07:28.378Z,45.30
2017-09-04T14:10:01.480Z,44.80
2017-09-04T14:12:34.478Z,45.40
2017-09-04T14:18:12.255Z,44.60
2017-09-04T14:20:39.796Z,46.90
2017-09-04T14:23:07.656Z,46.90
2017-09-04T14:25:35.226Z,45.50
2017-09-04T14:28:02.726Z,44.50
2017-09-04T14:30:30.248Z,44.50
2017-09-04T14:32:57.751Z,44.30
2017-09-04T14:35:25.688Z,44.90
2017-09-04T14:37:53.525Z,44.10
2017-09-04T14:40:27.289Z,41.40
2017-09-04T14:43:02.243Z,46.60
2017-09-04T14:45:35.473Z,48.30
2017-09-04T14:48:09.617Z,48.40
2017-09-04T14:50:37.148Z,44.30
2017-09-04T14:53:04.693Z,45.80
2017-09-04T14:55:32.197Z,46.00
2017-09-04T14:57:59.735Z,47.70
2017-09-04T15:00:27.263Z,45.40
2017-09-04T15:02:54.815Z,44.80
2017-09-04T15:05:22.380Z,48.60
2017-09-04T15:07:49.890Z,45.10
2017-09-04T15:10:18.963Z,46.30
2017-09-04T15:12:46.528Z,46.20
2017-09-04T15:15:14.039Z,42.30
2017-09-04T15:17:43.271Z,45.80
2017-09-04T15:20:10.772Z,45.70
2017-09-04T15:22:38.318Z,43.50
2017-09-04T15:25:05.861Z,45.20
2017-09-04T15:27:33.407Z,47.30
2017-09-04T15:30:00.912Z,46.60
2017-09-04T15:32:29.259Z,45.60
2017-09-04T15:34:57.389Z,45.60
2017-09-04T15:37:24.908Z,44.60
2017-09-04T15:39:52.444Z,43.40
2017-09-04T15:42:20.875Z,46.60
2017-09-04T15:44:48.419Z,44.30
2017-09-04T15:47:15.943Z,42.40
2017-09-04T15:49:43.451Z,43.70
2017-09-04T15:52:11.052Z,44.40
2017-09-04T15:54:38.558Z,44.20
2017-09-04T15:57:06.180Z,46.70
2017-09-04T15:59:33.683Z,46.60
2017-09-04T16:02:02.194Z,46.30
2017-09-04T16:04:29.804Z,45.90
2017-09-04T16:06:59.224Z,47.70
2017-09-04T16:09:31.529Z,45.50
2017-09-04T16:15:10.259Z,48.80
2017-09-04T16:17:39.243Z,47.70
2017-09-04T16:20:07.313Z,48.50
2017-09-04T16:22:34.816Z,48.20
2017-09-04T16:25:04.819Z,50.50
2017-09-04T16:30:37.347Z,48.80
2017-09-04T16:33:05.344Z,49.60
2017-09-04T16:38:35.122Z,48.40
2017-09-04T16:41:02.725Z,49.50
2017-09-04T16:43:30.300Z,51.40
2017-09-04T16:46:14.604Z,54.00
2017-09-04T16:48:42.112Z,54.00
2017-09-04T16:51:16.415Z,54.00
2017-09-04T16:53:45.511Z,54.00
2017-09-04T16:56:17.530Z,55.20
2017-09-04T16:58:45.956Z,55.80
2017-09-04T17:01:13.469Z,57.00
2017-09-04T17:03:41.067Z,60.50
2017-09-04T17:06:08.584Z,60.60
2017-09-04T17:08:38.060Z,60.90
2017-09-04T17:11:10.171Z,62.90
2017-09-04T17:13:37.728Z,64.30
2017-09-04T17:16:06.609Z,64.70
2017-09-04T17:18:35.871Z,66.60
2017-09-04T17:21:07.259Z,68.10
2017-09-04T17:23:35.579Z,69.30
2017-09-04T17:26:07.618Z,65.40
2017-09-04T17:28:35.116Z,70.00
2017-09-04T17:31:03.148Z,69.10
2017-09-04T17:33:32.259Z,70.20
2017-09-04T17:35:59.780Z,70.20
2017-09-04T17:38:28.155Z,72.30
2017-09-04T17:40:56.380Z,75.70
2017-09-04T17:43:23.910Z,76.70
2017-09-04T17:45:51.462Z,78.40
2017-09-04T17:48:19.047Z,77.60
2017-09-04T17:50:46.598Z,77.50
2017-09-04T17:53:15.047Z,77.90
2017-09-04T17:55:42.596Z,78.80
2017-09-04T17:58:10.106Z,79.80
2017-09-04T18:00:38.178Z,81.20
2017-09-04T18:03:05.699Z,82.10
2017-09-04T18:05:33.244Z,83.10
2017-09-04T18:08:00.781Z,83.70
2017-09-04T18:10:28.785Z,83.90
2017-09-04T18:12:57.100Z,82.90
2017-09-04T18:15:24.645Z,82.00
2017-09-04T18:17:52.148Z,81.80
2017-09-04T18:20:19.675Z,81.40
2017-09-04T18:22:47.831Z,81.10
2017-09-04T18:25:16.155Z,82.40
2017-09-04T18:27:43.715Z,82.40
2017-09-04T18:30:11.268Z,83.50
2017-09-04T18:32:38.817Z,84.20
2017-09-04T18:35:07.250Z,84.50
2017-09-04T18:37:34.800Z,84.60
2017-09-04T18:40:02.332Z,85.40
2017-09-04T18:42:33.304Z,85.90
2017-09-04T18:45:00.827Z,86.30
2017-09-04T18:47:28.756Z,86.20
2017-09-04T18:49:56.459Z,86.40
2017-09-04T18:52:24.040Z,86.50
2017-09-04T18:54:51.547Z,86.90
2017-09-04T18:57:19.076Z,87.10
2017-09-04T18:59:46.599Z,87.40
2017-09-04T19:02:14.123Z,88.00
2017-09-04T19:04:42.505Z,88.70
2017-09-04T19:07:10.324Z,89.00
2017-09-04T19:09:37.877Z,89.50
2017-09-04T19:12:05.489Z,89.90
2017-09-04T19:14:33.038Z,89.70
2017-09-04T19:17:01.371Z,89.90
2017-09-04T19:19:28.898Z,89.90
2017-09-04T19:21:56.584Z,90.00
2017-09-04T19:24:24.204Z,90.10
2017-09-04T19:26:51.799Z,90.20
2017-09-04T19:29:19.332Z,90.10
2017-09-04T19:31:47.024Z,90.00
2017-09-04T19:34:14.595Z,90.40
2017-09-04T19:36:42.576Z,90.40
2017-09-04T19:39:10.099Z,90.40
2017-09-04T19:41:37.661Z,90.60
2017-09-04T19:44:09.595Z,90.50
2017-09-04T19:46:38.496Z,90.30
2017-09-04T19:49:06.145Z,90.30
2017-09-04T19:51:33.709Z,90.30
2017-09-04T19:54:04.044Z,89.70
2017-09-04T19:56:33.692Z,90.50
2017-09-04T19:59:05.100Z,90.40
2017-09-04T20:01:34.004Z,90.70
2017-09-04T20:04:01.585Z,90.80
2017-09-04T20:06:29.158Z,90.80
2017-09-04T20:08:57.635Z,90.50
2017-09-04T20:11:25.207Z,90.50
2017-09-04T20:13:55.767Z,90.60
2017-09-04T20:16:23.533Z,90.60
2017-09-04T20:18:51.092Z,90.80
2017-09-04T20:21:18.664Z,90.90
2017-09-04T20:23:46.952Z,90.90
2017-09-04T20:26:15.373Z,90.80
2017-09-04T20:28:42.933Z,91.10
2017-09-04T20:31:10.541Z,91.30
2017-09-04T20:33:38.179Z,91.40
2017-09-04T20:36:07.339Z,91.80
2017-09-04T20:38:35.554Z,91.80
2017-09-04T20:41:03.128Z,91.60
2017-09-04T20:43:30.800Z,91.70
2017-09-04T20:45:58.348Z,91.90
2017-09-04T20:48:25.953Z,91.90
2017-09-04T20:50:53.463Z,92.10
2017-09-04T20:53:21.159Z,92.30
2017-09-04T20:55:48.704Z,92.60
2017-09-04T20:58:16.207Z,92.60
2017-09-04T21:00:44.637Z,92.60
2017-09-04T21:03:12.220Z,92.70
2017-09-04T21:05:39.828Z,92.90
2017-09-04T21:08:07.735Z,93.20
2017-09-04T21:10:36.188Z,93.20
2017-09-04T21:13:03.712Z,93.30
2017-09-04T21:15:31.242Z,93.40
2017-09-04T21:17:58.787Z,93.40
2017-09-04T21:20:26.316Z,93.60
2017-09-04T21:22:53.977Z,93.40
2017-09-04T21:25:21.508Z,93.30
2017-09-04T21:27:49.056Z,93.60
2017-09-04T21:30:16.602Z,93.70
2017-09-04T21:32:44.168Z,93.50
2017-09-04T21:35:12.288Z,93.30
2017-09-04T21:37:40.204Z,93.50
2017-09-04T21:40:08.056Z,93.60
2017-09-04T21:42:35.625Z,93.60
2017-09-04T21:45:03.151Z,93.70
2017-09-04T21:47:31.053Z,93.80
2017-09-04T21:49:58.607Z,93.90
2017-09-04T21:52:26.114Z,94.00
2017-09-04T21:54:53.620Z,94.20
2017-09-04T21:57:21.119Z,94.20
2017-09-04T21:59:48.660Z,94.10
2017-09-04T22:02:17.891Z,93.90
2017-09-04T22:04:45.415Z,94.10
2017-09-04T22:07:12.919Z,94.30
2017-09-04T22:09:40.475Z,94.30
2017-09-04T22:12:09.984Z,94.20
2017-09-04T22:14:37.485Z,94.20
2017-09-04T22:17:04.987Z,94.40
2017-09-04T22:19:32.484Z,94.40
2017-09-04T22:22:00.097Z,94.30
2017-09-04T22:24:28.252Z,94.40
2017-09-04T22:26:55.861Z,94.60
2017-09-04T22:29:23.404Z,94.40
2017-09-04T22:31:50.907Z,94.50
2017-09-04T22:34:18.807Z,94.50
2017-09-04T22:36:46.319Z,94.40
2017-09-04T22:39:13.874Z,94.50
2017-09-04T22:41:42.169Z,94.60
2017-09-04T22:44:09.687Z,94.50
2017-09-04T22:46:42.294Z,94.50
2017-09-04T22:49:09.857Z,94.50
2017-09-04T22:51:37.392Z,94.40
2017-09-04T22:54:04.949Z,94.30
2017-09-04T22:56:32.460Z,94.30
2017-09-04T22:59:00.467Z,94.40
2017-09-04T23:01:27.968Z,94.30
2017-09-04T23:03:56.047Z,94.50
2017-09-04T23:06:23.699Z,94.60
2017-09-04T23:08:51.206Z,94.60
2017-09-04T23:11:18.756Z,94.60
2017-09-04T23:13:46.287Z,94.70
2017-09-04T23:16:14.675Z,94.70
2017-09-04T23:18:42.283Z,94.40
2017-09-04T23:21:10.204Z,94.50
2017-09-04T23:23:37.723Z,94.60
2017-09-04T23:26:05.250Z,94.50
2017-09-04T23:28:32.760Z,94.60
2017-09-04T23:31:01.060Z,95.10
2017-09-04T23:33:28.925Z,95.10
2017-09-04T23:35:56.495Z,95.30
2017-09-04T23:38:24.012Z,95.50
2017-09-04T23:40:51.530Z,95.90
2017-09-04T23:43:19.055Z,95.70
2017-09-04T23:45:46.592Z,95.90
2017-09-04T23:48:17.863Z,95.90
2017-09-04T23:50:45.367Z,95.90
2017-09-04T23:53:12.923Z,95.90
2017-09-04T23:55:40.469Z,96.00
2017-09-04T23:58:07.975Z,96.20
